createdAt,value
2023-06-18T00:01:31.252Z,5.70
2023-06-18T00:03:58.442Z,8.35
2023-06-18T00:06:25.243Z,5.43
2023-06-18T00:08:51.850Z,6.93
2023-06-18T00:11:18.473Z,6.28
2023-06-18T00:13:45.154Z,7.60
2023-06-18T00:16:11.863Z,9.75
2023-06-18T00:18:38.536Z,6.97
2023-06-18T00:21:08.766Z,9.57
2023-06-18T00:23:36.243Z,5.68
2023-06-18T00:26:02.930Z,6.22
2023-06-18T00:28:30.175Z,6.38
2023-06-18T00:30:56.880Z,7.57
2023-06-18T00:33:25.198Z,5.75
2023-06-18T00:35:58.081Z,5.32
2023-06-18T00:38:25.941Z,6.93
2023-06-18T00:40:52.836Z,5.95
2023-06-18T00:43:19.894Z,6.50
2023-06-18T00:45:47.517Z,7.22
2023-06-18T00:48:15.115Z,5.90
2023-06-18T00:50:42.302Z,5.53
2023-06-18T00:53:10.637Z,5.13
2023-06-18T00:55:39.033Z,6.00
2023-06-18T00:58:06.326Z,5.13
2023-06-18T01:00:35.418Z,5.25
2023-06-18T01:03:04.838Z,5.35
2023-06-18T01:08:01.600Z,5.78
2023-06-18T01:10:30.868Z,6.70
2023-06-18T01:12:59.915Z,6.45
2023-06-18T01:15:28.945Z,9.70
2023-06-18T01:17:58.228Z,8.45
2023-06-18T01:20:27.436Z,8.45
2023-06-18T01:25:33.874Z,5.88
2023-06-18T01:30:28.481Z,8.35
2023-06-18T01:32:56.158Z,6.85
2023-06-18T01:35:23.819Z,7.18
2023-06-18T01:46:03.922Z,6.88
2023-06-18T01:48:40.898Z,6.18
2023-06-18T01:51:08.488Z,6.20
2023-06-18T01:53:37.025Z,5.18
2023-06-18T01:56:04.060Z,8.18
2023-06-18T01:58:32.838Z,5.88
2023-06-18T02:00:59.538Z,5.30
2023-06-18T02:03:26.665Z,5.90
2023-06-18T02:05:53.318Z,7.95
2023-06-18T02:08:19.937Z,6.55
2023-06-18T02:10:47.268Z,7.57
2023-06-18T02:13:14.167Z,5.65
2023-06-18T02:15:42.006Z,5.75
2023-06-18T02:18:10.134Z,7.75
2023-06-18T02:20:36.825Z,6.38
2023-06-18T02:23:04.351Z,7.50
2023-06-18T02:25:31.176Z,5.38
2023-06-18T02:27:58.639Z,7.20
2023-06-18T02:30:26.675Z,7.57
2023-06-18T02:32:54.174Z,5.15
2023-06-18T02:35:20.873Z,6.88
2023-06-18T02:37:47.512Z,6.57
2023-06-18T02:40:15.825Z,6.90
2023-06-18T02:42:48.747Z,6.88
2023-06-18T02:45:19.000Z,6.78
2023-06-18T02:47:46.440Z,7.25
2023-06-18T02:50:13.628Z,6.55
2023-06-18T02:52:41.299Z,7.43
2023-06-18T02:55:10.479Z,5.82
2023-06-18T02:57:39.174Z,7.20
2023-06-18T03:00:10.432Z,8.38
2023-06-18T03:02:37.481Z,8.27
2023-06-18T03:05:04.800Z,5.97
2023-06-18T03:07:32.840Z,5.55
2023-06-18T03:09:59.485Z,5.97
2023-06-18T03:12:26.074Z,7.90
2023-06-18T03:14:52.889Z,6.57
2023-06-18T03:17:19.532Z,6.70
2023-06-18T03:19:46.132Z,7.05
2023-06-18T03:22:13.091Z,6.15
2023-06-18T03:24:39.845Z,8.75
2023-06-18T03:27:07.630Z,6.78
2023-06-18T03:29:37.945Z,7.93
2023-06-18T03:32:04.924Z,7.57
2023-06-18T03:34:32.834Z,7.35
2023-06-18T03:37:02.012Z,7.10
2023-06-18T03:39:29.312Z,7.22
2023-06-18T03:41:56.245Z,6.78
2023-06-18T03:44:23.480Z,13.13
2023-06-18T03:46:50.965Z,8.68
2023-06-18T03:49:18.095Z,9.25
2023-06-18T03:51:44.856Z,11.80
2023-06-18T03:54:11.683Z,10.60
2023-06-18T03:56:38.391Z,11.30
2023-06-18T03:59:05.653Z,10.63
2023-06-18T04:01:32.522Z,9.52
2023-06-18T04:03:59.281Z,12.27
2023-06-18T04:06:26.040Z,9.73
2023-06-18T04:08:52.601Z,8.75
2023-06-18T04:11:19.286Z,8.77
2023-06-18T04:13:45.970Z,7.50
2023-06-18T04:16:12.554Z,11.23
2023-06-18T04:18:39.236Z,11.63
2023-06-18T04:21:05.927Z,8.60
2023-06-18T04:23:32.517Z,9.70
2023-06-18T04:25:59.215Z,10.93
2023-06-18T04:28:26.012Z,8.98
2023-06-18T04:30:52.609Z,12.73
2023-06-18T04:33:19.212Z,10.13
2023-06-18T04:35:46.568Z,9.40
2023-06-18T04:38:13.530Z,11.98
2023-06-18T04:40:40.155Z,10.55
2023-06-18T04:43:07.060Z,10.75
2023-06-18T04:45:33.900Z,10.25
2023-06-18T04:48:00.905Z,9.10
2023-06-18T04:50:27.529Z,9.00
2023-06-18T04:52:54.163Z,10.48
2023-06-18T04:55:20.813Z,9.52
2023-06-18T04:57:47.453Z,11.18
2023-06-18T05:00:14.463Z,11.18
2023-06-18T05:02:41.336Z,8.18
2023-06-18T05:05:08.582Z,11.55
2023-06-18T05:07:35.437Z,10.30
2023-06-18T05:10:02.663Z,8.88
2023-06-18T05:12:29.305Z,10.07
2023-06-18T05:14:55.898Z,10.38
2023-06-18T05:17:22.709Z,12.55
2023-06-18T05:19:49.344Z,10.02
2023-06-18T05:22:15.984Z,8.63
2023-06-18T05:24:42.591Z,8.90
2023-06-18T05:27:09.263Z,9.30
2023-06-18T05:29:35.869Z,10.60
2023-06-18T05:32:02.641Z,8.82
2023-06-18T05:34:29.231Z,9.13
2023-06-18T05:36:55.903Z,13.48
2023-06-18T05:39:22.505Z,13.25
2023-06-18T05:41:51.894Z,10.10
2023-06-18T05:44:18.998Z,10.27
2023-06-18T05:46:45.767Z,11.48
2023-06-18T05:49:12.496Z,10.18
2023-06-18T05:51:39.236Z,11.32
2023-06-18T05:54:05.894Z,10.43
2023-06-18T05:56:32.472Z,8.65
2023-06-18T05:58:59.094Z,9.82
2023-06-18T06:01:25.883Z,8.50
2023-06-18T06:03:52.597Z,8.85
2023-06-18T06:06:19.455Z,10.10
2023-06-18T06:08:46.087Z,11.82
2023-06-18T06:11:12.712Z,9.18
2023-06-18T06:13:39.326Z,11.90
2023-06-18T06:16:06.138Z,9.18
2023-06-18T06:18:32.888Z,10.63
2023-06-18T06:20:59.500Z,11.65
2023-06-18T06:23:26.446Z,11.77
2023-06-18T06:25:53.196Z,10.38
2023-06-18T06:28:19.838Z,10.40
2023-06-18T06:30:47.242Z,10.55
2023-06-18T06:33:13.909Z,10.82
2023-06-18T06:35:40.564Z,13.02
2023-06-18T06:38:07.314Z,10.18
2023-06-18T06:40:33.992Z,10.55
2023-06-18T06:43:00.733Z,10.00
2023-06-18T06:45:29.182Z,9.73
2023-06-18T06:47:56.089Z,10.98
2023-06-18T06:50:23.140Z,11.52
2023-06-18T06:52:50.075Z,10.20
2023-06-18T06:55:16.728Z,10.25
2023-06-18T06:57:43.370Z,9.32
2023-06-18T07:00:11.936Z,9.25
2023-06-18T07:02:38.732Z,12.32
2023-06-18T07:05:08.141Z,9.55
2023-06-18T07:07:34.929Z,11.18
2023-06-18T07:10:01.699Z,11.02
2023-06-18T07:12:28.389Z,10.00
2023-06-18T07:14:55.182Z,9.95
2023-06-18T07:17:22.029Z,10.32
2023-06-18T07:19:48.664Z,9.63
2023-06-18T07:22:15.453Z,8.93
2023-06-18T07:24:42.165Z,9.57
2023-06-18T07:27:09.035Z,9.02
2023-06-18T07:29:35.694Z,11.00
2023-06-18T07:32:02.298Z,11.10
2023-06-18T07:34:28.911Z,10.55
2023-06-18T07:36:55.553Z,15.23
2023-06-18T07:39:22.797Z,10.50
2023-06-18T07:41:50.891Z,9.75
2023-06-18T07:44:18.160Z,12.60
2023-06-18T07:46:45.239Z,13.02
2023-06-18T07:49:12.417Z,9.23
2023-06-18T07:51:39.174Z,11.70
2023-06-18T07:54:06.898Z,11.82
2023-06-18T07:56:33.523Z,11.75
2023-06-18T07:59:00.284Z,10.73
2023-06-18T08:01:27.428Z,11.70
2023-06-18T08:03:54.090Z,10.88
2023-06-18T08:06:20.827Z,14.63
2023-06-18T08:08:49.900Z,10.25
2023-06-18T08:11:16.878Z,11.10
2023-06-18T08:13:43.492Z,14.18
2023-06-18T08:16:10.298Z,15.38
2023-06-18T08:18:37.204Z,11.55
2023-06-18T08:21:04.105Z,11.60
2023-06-18T08:23:30.788Z,11.85
2023-06-18T08:25:57.514Z,11.90
2023-06-18T08:28:24.242Z,10.80
2023-06-18T08:30:51.461Z,11.75
2023-06-18T08:33:18.138Z,13.25
2023-06-18T08:35:44.800Z,13.23
2023-06-18T08:38:11.451Z,12.07
2023-06-18T08:40:50.415Z,11.35
2023-06-18T08:43:22.837Z,12.48
2023-06-18T08:45:52.890Z,11.98
2023-06-18T08:48:30.984Z,12.10
2023-06-18T08:51:05.024Z,13.48
2023-06-18T08:53:40.678Z,14.52
2023-06-18T08:56:08.946Z,12.02
2023-06-18T08:58:41.448Z,11.60
2023-06-18T09:01:08.465Z,14.45
2023-06-18T09:06:13.570Z,12.40
2023-06-18T09:08:40.759Z,11.82
2023-06-18T09:11:07.823Z,11.93
2023-06-18T09:13:34.876Z,11.95
2023-06-18T09:16:01.812Z,12.75
2023-06-18T09:18:28.944Z,14.05
2023-06-18T09:20:55.966Z,13.73
2023-06-18T09:23:22.775Z,14.25
2023-06-18T09:25:57.997Z,13.23
2023-06-18T09:28:27.523Z,11.80
2023-06-18T09:30:59.451Z,12.60
2023-06-18T09:33:32.899Z,12.45
2023-06-18T09:36:01.328Z,13.50
2023-06-18T09:41:14.366Z,13.23
2023-06-18T09:43:44.323Z,13.77
2023-06-18T09:46:11.648Z,13.88
2023-06-18T09:48:41.471Z,14.68
2023-06-18T09:51:08.403Z,16.05
2023-06-18T09:53:35.499Z,14.15
2023-06-18T09:56:18.141Z,14.20
2023-06-18T09:58:47.475Z,12.80
2023-06-18T10:01:15.476Z,13.63
2023-06-18T10:03:43.047Z,13.95
2023-06-18T10:08:48.403Z,13.18
2023-06-18T10:11:17.003Z,12.77
2023-06-18T10:16:29.107Z,13.55
2023-06-18T10:19:04.262Z,13.57
2023-06-18T10:21:34.872Z,12.23
2023-06-18T10:24:19.699Z,12.45
2023-06-18T10:26:47.417Z,14.93
2023-06-18T10:29:14.201Z,11.93
2023-06-18T10:31:40.829Z,12.57
2023-06-18T10:34:07.820Z,11.48
2023-06-18T10:36:35.144Z,11.88
2023-06-18T10:39:03.109Z,12.77
2023-06-18T10:41:29.774Z,11.98
2023-06-18T10:43:57.039Z,13.43
2023-06-18T10:46:23.983Z,13.73
2023-06-18T10:49:20.732Z,10.05
2023-06-18T10:54:56.037Z,11.75
2023-06-18T10:57:30.185Z,10.68
2023-06-18T10:59:58.041Z,9.68
2023-06-18T11:02:34.420Z,12.70
2023-06-18T11:05:01.141Z,12.77
2023-06-18T11:07:28.927Z,10.52
2023-06-18T11:09:59.140Z,14.25
2023-06-18T11:12:28.109Z,11.70
2023-06-18T11:15:17.272Z,10.52
2023-06-18T11:17:46.045Z,13.13
2023-06-18T11:20:14.045Z,12.73
2023-06-18T11:22:42.306Z,14.23
2023-06-18T11:25:11.084Z,11.73
2023-06-18T11:27:43.528Z,10.70
2023-06-18T11:30:12.368Z,10.70
2023-06-18T11:32:40.717Z,9.73
2023-06-18T11:35:08.891Z,11.45
2023-06-18T11:37:38.734Z,11.88
2023-06-18T11:40:08.259Z,9.27
2023-06-18T11:42:37.774Z,9.52
2023-06-18T11:45:06.883Z,12.23
2023-06-18T11:47:35.727Z,11.02
2023-06-18T11:50:02.998Z,10.27
2023-06-18T11:52:30.709Z,8.30
2023-06-18T11:55:05.025Z,9.27
2023-06-18T11:57:32.042Z,11.68
2023-06-18T11:59:58.711Z,7.97
2023-06-18T12:02:27.896Z,9.80
2023-06-18T12:05:03.031Z,7.45
2023-06-18T12:07:30.399Z,9.52
2023-06-18T12:09:59.564Z,8.95
2023-06-18T12:15:18.942Z,9.18
2023-06-18T12:18:09.438Z,8.45
2023-06-18T12:20:36.829Z,9.82
2023-06-18T12:23:04.025Z,8.88
2023-06-18T12:25:32.125Z,9.63
2023-06-18T12:28:04.615Z,8.45
2023-06-18T12:30:36.593Z,9.27
2023-06-18T12:35:52.280Z,9.27
2023-06-18T12:38:19.796Z,10.23
2023-06-18T12:40:48.089Z,10.75
2023-06-18T12:43:17.420Z,9.77
2023-06-18T12:45:47.168Z,9.88
2023-06-18T12:48:16.006Z,12.20
2023-06-18T12:53:22.165Z,9.68
2023-06-18T12:55:52.150Z,10.02
2023-06-18T12:58:30.304Z,9.95
2023-06-18T13:03:28.402Z,10.38
2023-06-18T13:05:57.309Z,12.02
2023-06-18T13:08:24.012Z,10.75
2023-06-18T13:10:52.228Z,8.73
2023-06-18T13:13:20.106Z,8.13
2023-06-18T13:15:48.581Z,9.93
2023-06-18T13:18:18.330Z,10.93
2023-06-18T13:20:46.500Z,8.38
2023-06-18T13:23:13.586Z,8.43
2023-06-18T13:25:41.124Z,8.32
2023-06-18T13:28:07.918Z,9.13
2023-06-18T13:30:34.549Z,8.50
2023-06-18T13:33:01.474Z,8.93
2023-06-18T13:35:28.993Z,9.50
2023-06-18T13:37:55.615Z,9.15
2023-06-18T13:40:22.320Z,9.95
2023-06-18T13:42:48.959Z,9.27
2023-06-18T13:45:15.666Z,8.18
2023-06-18T13:47:42.348Z,9.43
2023-06-18T13:50:09.614Z,8.82
2023-06-18T13:52:36.280Z,10.88
2023-06-18T13:55:03.651Z,9.10
2023-06-18T13:57:30.370Z,7.35
2023-06-18T13:59:56.956Z,10.55
2023-06-18T14:02:23.676Z,8.10
2023-06-18T14:04:51.049Z,8.07
2023-06-18T14:07:17.853Z,8.45
2023-06-18T14:09:44.645Z,8.50
2023-06-18T14:12:11.868Z,10.55
2023-06-18T14:14:38.867Z,11.98
2023-06-18T14:17:11.086Z,8.57
2023-06-18T14:19:39.159Z,9.52
2023-06-18T14:22:07.131Z,10.18
2023-06-18T14:24:34.603Z,9.05
2023-06-18T14:27:03.378Z,9.52
2023-06-18T14:29:33.395Z,9.07
2023-06-18T14:32:00.919Z,10.00
2023-06-18T14:34:27.766Z,9.50
2023-06-18T14:36:56.436Z,12.75
2023-06-18T14:39:24.410Z,8.77
2023-06-18T14:41:52.755Z,8.43
2023-06-18T14:44:19.855Z,8.68
2023-06-18T14:46:46.765Z,8.32
2023-06-18T14:49:13.460Z,8.10
2023-06-18T14:51:40.111Z,8.48
2023-06-18T14:54:13.508Z,8.15
2023-06-18T14:56:43.519Z,10.65
2023-06-18T14:59:10.831Z,10.90
2023-06-18T15:01:38.533Z,9.15
2023-06-18T15:04:07.287Z,8.93
2023-06-18T15:06:35.447Z,9.55
2023-06-18T15:09:03.767Z,11.80
2023-06-18T15:11:31.147Z,8.98
2023-06-18T15:13:58.158Z,8.10
2023-06-18T15:16:25.513Z,10.50
2023-06-18T15:18:53.141Z,9.10
2023-06-18T15:21:20.202Z,9.18
2023-06-18T15:23:47.523Z,8.23
2023-06-18T15:26:15.650Z,13.18
2023-06-18T15:28:43.489Z,18.27
2023-06-18T15:31:12.057Z,10.57
2023-06-18T15:33:39.182Z,14.70
2023-06-18T15:36:05.961Z,15.52
2023-06-18T15:38:32.552Z,14.93
2023-06-18T15:40:59.184Z,11.07
2023-06-18T15:43:26.818Z,8.18
2023-06-18T15:45:53.592Z,11.57
2023-06-18T15:48:20.295Z,7.05
2023-06-18T15:50:49.014Z,8.07
2023-06-18T15:53:17.951Z,9.05
2023-06-18T15:55:44.873Z,9.00
2023-06-18T15:58:11.765Z,9.25
2023-06-18T16:00:38.563Z,10.48
2023-06-18T16:03:05.279Z,10.60
2023-06-18T16:05:32.037Z,9.75
2023-06-18T16:07:58.713Z,7.90
2023-06-18T16:10:25.323Z,8.40
2023-06-18T16:12:54.292Z,7.07
2023-06-18T16:15:21.299Z,7.38
2023-06-18T16:17:48.183Z,5.40
2023-06-18T16:20:14.853Z,6.75
2023-06-18T16:22:41.654Z,5.70
2023-06-18T16:25:08.751Z,6.32
2023-06-18T16:27:35.715Z,6.32
2023-06-18T16:30:03.277Z,5.20
2023-06-18T16:32:31.510Z,5.53
2023-06-18T16:34:58.405Z,6.35
2023-06-18T16:37:25.026Z,5.70
2023-06-18T16:39:53.090Z,6.85
2023-06-18T16:42:19.770Z,6.82
2023-06-18T16:44:46.362Z,6.60
2023-06-18T16:47:12.927Z,8.70
2023-06-18T16:49:39.523Z,6.90
2023-06-18T16:52:06.302Z,9.27
2023-06-18T16:54:33.130Z,9.25
2023-06-18T16:56:59.742Z,7.55
2023-06-18T16:59:28.785Z,6.13
2023-06-18T17:01:55.783Z,6.03
2023-06-18T17:04:22.889Z,5.95
2023-06-18T17:06:49.538Z,6.43
2023-06-18T17:09:16.567Z,7.30
2023-06-18T17:11:43.212Z,5.88
2023-06-18T17:14:09.884Z,6.65
2023-06-18T17:16:36.516Z,6.82
2023-06-18T17:19:03.361Z,6.15
2023-06-18T17:21:29.935Z,6.35
2023-06-18T17:24:01.499Z,6.68
2023-06-18T17:26:28.628Z,5.13
2023-06-18T17:28:56.843Z,6.15
2023-06-18T17:31:25.044Z,6.78
2023-06-18T17:33:51.637Z,6.10
2023-06-18T17:36:19.354Z,7.90
2023-06-18T17:38:48.381Z,7.80
2023-06-18T17:41:15.153Z,6.90
2023-06-18T17:43:41.720Z,8.45
2023-06-18T17:46:17.964Z,6.60
2023-06-18T17:48:46.803Z,6.63
2023-06-18T17:51:13.522Z,7.40
2023-06-18T17:53:42.000Z,6.93
2023-06-18T17:56:09.482Z,6.57
2023-06-18T17:58:36.679Z,9.48
2023-06-18T18:01:03.607Z,7.28
2023-06-18T18:03:34.190Z,8.60
2023-06-18T18:06:03.674Z,6.80
2023-06-18T18:08:31.076Z,7.78
2023-06-18T18:10:57.756Z,6.82
2023-06-18T18:13:27.734Z,7.90
2023-06-18T18:15:56.449Z,10.68
2023-06-18T18:18:24.163Z,7.57
2023-06-18T18:20:50.802Z,8.50
2023-06-18T18:23:17.503Z,6.70
2023-06-18T18:25:44.187Z,6.03
2023-06-18T18:28:11.758Z,7.07
2023-06-18T18:30:40.718Z,8.85
2023-06-18T18:33:09.146Z,7.60
2023-06-18T18:35:36.268Z,7.72
2023-06-18T18:38:03.058Z,8.55
2023-06-18T18:40:30.017Z,7.93
2023-06-18T18:42:57.530Z,8.05
2023-06-18T18:45:24.827Z,8.75
2023-06-18T18:47:52.495Z,7.93
2023-06-18T18:50:21.754Z,7.50
2023-06-18T18:55:16.175Z,6.30
2023-06-18T18:57:42.798Z,7.75
2023-06-18T19:00:09.915Z,7.05
2023-06-18T19:02:36.674Z,6.88
2023-06-18T19:05:03.478Z,7.45
2023-06-18T19:07:30.185Z,8.70
2023-06-18T19:09:56.821Z,7.25
2023-06-18T19:12:24.486Z,8.82
2023-06-18T19:14:51.438Z,7.28
2023-06-18T19:17:18.900Z,7.82
2023-06-18T19:19:45.838Z,9.45
2023-06-18T19:22:12.795Z,7.07
2023-06-18T19:24:39.645Z,8.10
2023-06-18T19:27:06.702Z,8.63
2023-06-18T19:29:33.424Z,10.85
2023-06-18T19:32:00.006Z,7.97
2023-06-18T19:34:26.825Z,9.32
2023-06-18T19:36:53.496Z,7.82
2023-06-18T19:39:20.528Z,8.43
2023-06-18T19:41:47.245Z,8.90
2023-06-18T19:44:13.861Z,9.18
2023-06-18T19:46:45.950Z,11.10
2023-06-18T19:49:13.359Z,9.35
2023-06-18T19:51:40.054Z,8.90
2023-06-18T19:54:06.729Z,9.95
2023-06-18T19:56:36.170Z,10.20
2023-06-18T20:01:30.267Z,9.95
2023-06-18T20:03:57.009Z,8.23
2023-06-18T20:06:23.738Z,9.15
2023-06-18T20:08:50.337Z,9.63
2023-06-18T20:11:16.966Z,9.88
2023-06-18T20:13:43.842Z,11.00
2023-06-18T20:16:10.680Z,10.63
2023-06-18T20:18:37.322Z,8.90
2023-06-18T20:21:04.374Z,9.82
2023-06-18T20:23:31.496Z,10.57
2023-06-18T20:25:58.580Z,13.25
2023-06-18T20:28:25.513Z,10.38
2023-06-18T20:30:52.335Z,10.85
2023-06-18T20:33:18.956Z,12.45
2023-06-18T20:35:45.588Z,8.95
2023-06-18T20:38:12.381Z,10.80
2023-06-18T20:40:38.966Z,13.35
2023-06-18T20:43:05.560Z,10.73
2023-06-18T20:45:32.199Z,12.13
2023-06-18T20:48:00.743Z,10.98
2023-06-18T20:50:27.719Z,12.35
2023-06-18T20:52:54.368Z,10.02
2023-06-18T20:55:21.030Z,11.65
2023-06-18T20:57:48.644Z,7.07
2023-06-18T21:00:15.766Z,6.70
2023-06-18T21:02:42.759Z,9.63
2023-06-18T21:05:11.069Z,8.10
2023-06-18T21:07:39.628Z,7.78
2023-06-18T21:10:06.921Z,8.55
2023-06-18T21:12:33.537Z,7.30
2023-06-18T21:15:00.255Z,7.60
2023-06-18T21:17:27.245Z,7.50
2023-06-18T21:19:54.072Z,8.82
2023-06-18T21:22:20.949Z,9.52
2023-06-18T21:24:47.544Z,9.45
2023-06-18T21:27:14.256Z,6.93
2023-06-18T21:29:40.833Z,9.65
2023-06-18T21:32:07.974Z,8.30
2023-06-18T21:34:34.563Z,6.43
2023-06-18T21:37:01.157Z,9.38
2023-06-18T21:39:27.971Z,6.88
2023-06-18T21:41:56.330Z,8.20
2023-06-18T21:44:23.014Z,6.65
2023-06-18T21:46:49.701Z,6.95
2023-06-18T21:49:16.359Z,8.02
2023-06-18T21:51:44.839Z,8.32
2023-06-18T21:54:11.555Z,7.75
2023-06-18T21:56:38.493Z,8.07
2023-06-18T21:59:05.117Z,9.27
2023-06-18T22:01:31.729Z,7.30
2023-06-18T22:03:58.549Z,9.95
2023-06-18T22:06:25.538Z,8.35
2023-06-18T22:08:53.211Z,10.13
2023-06-18T22:11:23.206Z,10.52
2023-06-18T22:13:50.133Z,15.55
2023-06-18T22:16:17.134Z,9.27
2023-06-18T22:18:43.977Z,8.68
2023-06-18T22:21:11.583Z,10.48
2023-06-18T22:23:38.654Z,8.75
2023-06-18T22:26:06.271Z,8.15
2023-06-18T22:28:34.043Z,9.75
2023-06-18T22:31:00.868Z,10.57
2023-06-18T22:33:31.390Z,11.35
2023-06-18T22:35:58.325Z,9.73
2023-06-18T22:38:26.351Z,11.10
2023-06-18T22:40:54.962Z,12.68
2023-06-18T22:43:21.582Z,14.88
2023-06-18T22:45:48.289Z,12.27
2023-06-18T22:48:14.964Z,11.70
2023-06-18T22:50:42.833Z,11.77
2023-06-18T22:53:09.840Z,12.00
2023-06-18T22:55:36.490Z,14.35
2023-06-18T22:58:03.100Z,10.82
2023-06-18T23:00:30.324Z,11.55
2023-06-18T23:02:57.165Z,13.95
2023-06-18T23:05:23.956Z,11.45
2023-06-18T23:07:51.949Z,9.43
2023-06-18T23:10:20.541Z,11.07
2023-06-18T23:12:47.546Z,11.25
2023-06-18T23:15:14.274Z,12.43
2023-06-18T23:17:42.896Z,12.50
2023-06-18T23:20:14.029Z,10.75
2023-06-18T23:22:43.136Z,11.65
2023-06-18T23:25:09.992Z,11.40
2023-06-18T23:27:39.257Z,9.15
2023-06-18T23:30:09.372Z,11.15
2023-06-18T23:32:37.977Z,11.85
2023-06-18T23:35:06.352Z,12.70
2023-06-18T23:37:36.758Z,13.25
2023-06-18T23:40:06.784Z,10.93
2023-06-18T23:42:33.626Z,10.75
2023-06-18T23:45:00.403Z,10.00
2023-06-18T23:47:27.210Z,13.45
2023-06-18T23:49:54.050Z,11.73
2023-06-18T23:52:20.659Z,10.57
2023-06-18T23:54:47.279Z,12.15
2023-06-18T23:57:13.924Z,11.18
2023-06-18T23:59:40.575Z,10.63
